Time;durP1;ratioP1;P1;durP2;ratioP2;P2;SDS_P1;SDS_P2;PMS_P1;PMS_P2;Temp;Humidity;BMP_temperature;BMP_pressure;BME280_temperature;BME280_humidity;BME280_pressure;Samples;Min_cycle;Max_cycle;Signal;HPM_P1;HPM_P2
2023/02/10 10:32:06;;;;;;;;;;;;;;;19.29;19.10;99853.19;5017183;28;2005583;-82
2023/02/10 10:34:36;;;;;;;;;;;;;;;18.60;19.20;99857.28;5096200;28;19920;-82
2023/02/10 10:37:05;;;;;;;;;;;;;;;20.43;18.21;99857.50;5089834;28;19920;-82
2023/02/10 10:39:36;;;;;;;;;;;;;;;18.84;20.27;99855.53;5094312;28;19924;-82
2023/02/10 10:42:08;;;;;;;;;;;;;;;18.11;18.67;99858.56;5095195;28;19922;-82
2023/02/10 10:44:35;;;;;;;;;;;;;;;18.92;20.29;99860.16;5094774;28;19916;-82
2023/02/10 10:47:08;;;;;;;;;;;;;;;19.33;19.48;99866.03;5085332;28;19943;-82
2023/02/10 10:49:35;;;;;;;;;;;;;;;18.88;20.86;99860.03;5095641;28;19916;-82
2023/02/10 10:52:02;;;;;;;;;;;;;;;18.75;20.11;99857.69;5095966;28;20371;-82
2023/02/10 10:54:28;;;;;;;;;;;;;;;17.13;23.15;99856.13;5095877;28;20379;-82
2023/02/10 10:57:00;;;;;;;;;;;;;;;15.68;24.37;99856.25;5089997;28;19971;-82
2023/02/10 10:59:42;;;;;;;;;;;;;;;14.25;27.47;99868.16;5075813;28;19978;-80
2023/02/10 11:02:13;;;;;;;;;;;;;;;16.49;23.35;99859.41;5095273;28;20011;-82
2023/02/10 11:04:42;;;;;;;;;;;;;;;18.39;21.50;99853.06;5093673;28;19942;-82
2023/02/10 11:07:10;;;;;;;;;;;;;;;19.12;20.31;99845.16;5094803;28;20387;-83
2023/02/10 11:09:40;;;;;;;;;;;;;;;20.64;18.89;99842.00;5094439;28;20326;-82
2023/02/10 11:12:20;;;;;;;;;;;;;;;19.39;20.67;99833.19;5093711;28;19927;-81
2023/02/10 11:14:48;;;;;;;;;;;;;;;19.06;21.77;99838.25;5093223;28;20384;-82
2023/02/10 11:17:20;;;;;;;;;;;;;;;18.07;21.22;99835.41;5093312;28;19920;-82
2023/02/10 11:19:53;;;;;;;;;;;;;;;18.61;19.86;99839.44;5087885;28;20194;-82
2023/02/10 11:22:21;;;;;;;;;;;;;;;19.12;19.67;99828.47;5078242;28;19974;-81
2023/02/10 11:24:49;;;;;;;;;;;;;;;18.26;21.62;99838.38;5084994;28;19916;-82
2023/02/10 11:27:17;;;;;;;;;;;;;;;20.34;18.90;99831.81;5074979;28;20352;-82
2023/02/10 11:29:48;;;;;;;;;;;;;;;21.62;17.32;99831.03;5074071;28;19916;-82
2023/02/10 11:32:25;;;;;;;;;;;;;;;21.80;17.85;99825.69;5090029;28;19920;-81
2023/02/10 11:34:52;;;;;;;;;;;;;;;22.33;16.94;99820.91;5107357;28;19928;-82
2023/02/10 11:37:21;;;;;;;;;;;;;;;22.79;16.96;99819.47;5109100;28;19977;-82
2023/02/10 11:39:47;;;;;;;;;;;;;;;23.58;16.62;99811.44;5114207;28;19916;-82
2023/02/10 11:42:22;;;;;;;;;;;;;;;23.36;16.47;99812.47;5113936;28;19919;-82
2023/02/10 11:44:58;;;;;;;;;;;;;;;20.85;18.26;99810.91;5113476;28;19984;-82
2023/02/10 11:47:25;;;;;;;;;;;;;;;21.96;18.13;99809.63;5113847;28;19923;-82
2023/02/10 11:49:51;;;;;;;;;;;;;;;22.24;17.82;99809.97;5113763;28;20390;-82
2023/02/10 11:52:22;;;;;;;;;;;;;;;22.75;16.47;99818.63;5100962;28;19923;-82
2023/02/10 11:54:49;;;;;;;;;;;;;;;23.01;17.11;99817.72;5094959;28;19927;-82
2023/02/10 12:00:10;;;;;;;;;;;;;;;20.15;19.33;99813.06;5113643;28;19930;-82
2023/02/10 12:02:54;;;;;;;;;;;;;;;20.07;19.51;99818.84;5103885;28;20283;-82
2023/02/10 12:05:28;;;;;;;;;;;;;;;21.23;18.38;99799.66;5109761;28;19930;-82
2023/02/10 12:08:09;;;;;;;;;;;;;;;22.93;17.22;99810.41;5111719;28;19916;-82
2023/02/10 12:10:41;;;;;;;;;;;;;;;24.27;17.31;99791.84;5108110;28;20043;-82
2023/02/10 12:13:07;;;;;;;;;;;;;;;24.07;15.57;99787.72;5113630;28;19920;-82
2023/02/10 12:15:36;;;;;;;;;;;;;;;23.19;16.79;99799.06;5113045;28;19915;-82
2023/02/10 12:18:12;;;;;;;;;;;;;;;21.59;19.10;99803.00;5102361;28;20384;-82
2023/02/10 12:20:47;;;;;;;;;;;;;;;21.41;18.22;99815.91;5109549;28;19920;-82
2023/02/10 12:23:31;;;;;;;;;;;;;;;21.67;18.32;99799.97;5113421;28;20007;-82
2023/02/10 12:26:06;;;;;;;;;;;;;;;20.38;19.67;99802.81;5112079;28;19935;-81
2023/02/10 12:28:32;;;;;;;;;;;;;;;19.11;22.01;99794.25;5095922;28;19923;-81
2023/02/10 12:31:03;;;;;;;;;;;;;;;18.26;20.83;99805.03;5098806;28;19968;-81
2023/02/10 12:33:39;;;;;;;;;;;;;;;20.19;21.71;99790.81;5113367;28;19926;-81
2023/02/10 12:36:28;;;;;;;;;;;;;;;17.42;23.37;99808.75;5113359;28;19923;-82
2023/02/10 12:38:57;;;;;;;;;;;;;;;18.44;21.77;99813.84;5113109;28;19927;-81
2023/02/10 12:41:42;;;;;;;;;;;;;;;18.15;22.15;99811.44;5113100;28;19966;-81
2023/02/10 12:44:22;;;;;;;;;;;;;;;18.82;22.93;99805.81;5111513;28;20006;-81
2023/02/10 12:46:59;;;;;;;;;;;;;;;18.89;21.84;99794.06;5112878;28;19919;-81
2023/02/10 12:49:25;;;;;;;;;;;;;;;18.54;20.90;99811.41;5112659;28;19916;-81
2023/02/10 12:52:14;;;;;;;;;;;;;;;19.01;20.10;99808.72;5113141;28;19923;-81
2023/02/10 12:54:46;;;;;;;;;;;;;;;18.80;20.89;99816.50;5113116;28;19951;-81
2023/02/10 12:57:16;;;;;;;;;;;;;;;18.62;21.49;99809.66;5112535;28;19924;-80
2023/02/10 12:59:42;;;;;;;;;;;;;;;19.43;19.32;99814.59;5111048;28;19916;-81
2023/02/10 13:02:13;;;;;;;;;;;;;;;20.62;19.77;99808.09;5112821;28;20504;-81
2023/02/10 13:04:45;;;;;;;;;;;;;;;21.52;17.72;99816.91;5094627;28;19962;-80
2023/02/10 13:07:26;;;;;;;;;;;;;;;22.01;17.73;99815.66;5113146;28;19916;-82
2023/02/10 13:09:56;;;;;;;;;;;;;;;20.61;20.86;99822.38;5109526;28;19916;-81
2023/02/10 13:12:27;;;;;;;;;;;;;;;20.22;19.52;99820.78;5112938;28;20366;-81
2023/02/10 13:14:59;;;;;;;;;;;;;;;19.21;21.42;99829.91;5113101;28;19916;-82
2023/02/10 13:17:27;;;;;;;;;;;;;;;19.16;21.03;99826.59;5089145;28;19939;-79
2023/02/10 13:19:52;;;;;;;;;;;;;;;17.90;24.33;99830.94;5112295;28;20056;-81
2023/02/10 13:22:31;;;;;;;;;;;;;;;17.33;24.89;99821.13;5106856;28;20434;-82
2023/02/10 13:24:57;;;;;;;;;;;;;;;17.68;22.75;99823.13;5112268;28;19927;-80
2023/02/10 13:27:42;;;;;;;;;;;;;;;18.11;21.18;99822.44;5112744;28;19920;-80
2023/02/10 13:30:20;;;;;;;;;;;;;;;18.51;23.11;99822.44;5112372;28;20394;-80
2023/02/10 13:32:53;;;;;;;;;;;;;;;17.79;23.31;99826.22;5111649;28;19926;-80
2023/02/10 13:35:21;;;;;;;;;;;;;;;18.67;21.27;99817.72;5112302;28;19970;-80
2023/02/10 13:37:52;;;;;;;;;;;;;;;19.51;20.49;99810.78;5112286;28;19919;-81
2023/02/10 13:40:22;;;;;;;;;;;;;;;18.00;23.19;99829.66;5112181;28;19955;-81
2023/02/10 13:42:59;;;;;;;;;;;;;;;17.96;25.03;99842.63;5112741;28;19927;-80
2023/02/10 13:45:26;;;;;;;;;;;;;;;17.56;22.81;99831.44;5112297;28;19916;-81
2023/02/10 13:47:54;;;;;;;;;;;;;;;17.45;23.66;99835.81;5111972;28;20344;-81
2023/02/10 13:50:24;;;;;;;;;;;;;;;17.47;24.33;99827.13;5085411;28;19923;-81
2023/02/10 13:52:56;;;;;;;;;;;;;;;18.16;23.86;99829.72;5114409;28;19951;-80
2023/02/10 13:55:22;;;;;;;;;;;;;;;17.63;22.61;99844.75;5114581;28;19916;-79
2023/02/10 13:57:54;;;;;;;;;;;;;;;17.22;25.87;99826.34;5106382;28;20295;-81
2023/02/10 14:00:22;;;;;;;;;;;;;;;17.61;23.17;99844.28;5115998;28;19923;-80
2023/02/10 14:03:02;;;;;;;;;;;;;;;17.79;23.44;99837.31;5106201;28;19931;-80
2023/02/10 14:05:33;;;;;;;;;;;;;;;16.54;25.55;99848.13;5105196;27;20418;-81
2023/02/10 14:07:59;;;;;;;;;;;;;;;16.84;25.20;99848.00;5093079;28;20279;-81
2023/02/10 14:10:28;;;;;;;;;;;;;;;16.94;23.25;99851.13;5106291;28;19981;-81
2023/02/10 14:12:56;;;;;;;;;;;;;;;15.28;26.79;99841.13;5110719;28;19927;-81
2023/02/10 14:15:27;;;;;;;;;;;;;;;16.33;23.76;99863.13;5111883;28;19954;-82
2023/02/10 14:18:20;;;;;;;;;;;;;;;17.17;23.20;99859.84;5110781;28;19919;-82
2023/02/10 14:20:47;;;;;;;;;;;;;;;16.68;25.22;99867.25;5106069;28;19920;-82
2023/02/10 14:23:19;;;;;;;;;;;;;;;16.58;23.26;99864.88;5114591;28;20406;-82
2023/02/10 14:25:48;;;;;;;;;;;;;;;17.50;23.22;99866.16;5104638;28;19924;-81
2023/02/10 14:28:26;;;;;;;;;;;;;;;19.38;20.68;99862.19;5106590;28;19920;-81
2023/02/10 14:31:04;;;;;;;;;;;;;;;18.86;22.15;99850.44;5111332;28;19934;-81
2023/02/10 14:33:31;;;;;;;;;;;;;;;17.69;22.97;99852.50;5116330;28;20065;-81
2023/02/10 14:36:00;;;;;;;;;;;;;;;17.59;23.10;99857.72;5113167;28;19930;-82
2023/02/10 14:38:27;;;;;;;;;;;;;;;18.11;22.15;99853.00;5110952;28;20400;-81
2023/02/10 14:40:54;;;;;;;;;;;;;;;17.07;24.36;99869.44;5112369;28;19938;-82
2023/02/10 14:43:23;;;;;;;;;;;;;;;17.73;22.29;99870.09;5104913;28;20342;-83
2023/02/10 14:45:49;;;;;;;;;;;;;;;18.32;21.87;99867.53;5113944;28;20434;-82
2023/02/10 14:48:21;;;;;;;;;;;;;;;19.09;21.32;99866.19;5111400;27;20321;-82
2023/02/10 14:51:06;;;;;;;;;;;;;;;18.75;22.74;99877.16;5113475;28;19920;-82
2023/02/10 14:53:33;;;;;;;;;;;;;;;19.47;20.69;99876.75;5116024;27;20041;-82
2023/02/10 14:56:00;;;;;;;;;;;;;;;20.28;20.14;99878.69;5113979;28;20390;-82
2023/02/10 14:58:27;;;;;;;;;;;;;;;20.57;19.94;99877.34;5109903;28;20260;-82
2023/02/10 15:01:11;;;;;;;;;;;;;;;20.53;19.67;99882.84;5111088;28;19924;-81
2023/02/10 15:03:39;;;;;;;;;;;;;;;19.77;21.12;99891.00;5115947;28;20039;-81
2023/02/10 15:06:05;;;;;;;;;;;;;;;19.77;21.88;99886.25;5117884;27;20380;-81
2023/02/10 15:08:33;;;;;;;;;;;;;;;18.87;21.77;99886.28;5114475;27;19926;-81
2023/02/10 15:11:01;;;;;;;;;;;;;;;17.82;25.07;99889.41;5108989;27;19924;-82
2023/02/10 15:13:34;;;;;;;;;;;;;;;19.62;21.72;99898.25;5114475;28;19915;-82
2023/02/10 15:16:02;;;;;;;;;;;;;;;19.31;23.37;99889.84;5091753;28;19924;-81
2023/02/10 15:18:30;;;;;;;;;;;;;;;20.21;20.59;99891.66;5109424;28;19923;-81
2023/02/10 15:21:01;;;;;;;;;;;;;;;19.64;23.19;99889.50;5078545;28;19951;-83
2023/02/10 15:23:31;;;;;;;;;;;;;;;19.70;21.72;99904.78;5113076;28;19920;-82
2023/02/10 15:26:01;;;;;;;;;;;;;;;18.82;22.59;99910.75;5111278;28;19916;-81
2023/02/10 15:28:28;;;;;;;;;;;;;;;19.42;23.00;99915.22;5125713;27;19919;-82
2023/02/10 15:31:21;;;;;;;;;;;;;;;19.02;22.33;99921.66;5115623;27;20068;-82
2023/02/10 15:33:51;;;;;;;;;;;;;;;19.26;23.35;99915.16;5102755;28;20280;-81
2023/02/10 15:36:21;;;;;;;;;;;;;;;19.62;22.61;99917.75;5108120;28;20022;-82
2023/02/10 15:38:56;;;;;;;;;;;;;;;18.47;24.28;99918.88;5115208;28;20015;-82
2023/02/10 15:41:37;;;;;;;;;;;;;;;18.85;23.62;99919.22;5104388;28;19920;-82
2023/02/10 15:44:23;;;;;;;;;;;;;;;20.10;20.74;99910.94;5106531;28;19920;-82
2023/02/10 15:46:53;;;;;;;;;;;;;;;19.04;23.12;99922.13;5114735;28;19927;-82
2023/02/10 15:49:20;;;;;;;;;;;;;;;18.58;24.12;99923.59;5109751;28;21287;-82
2023/02/10 15:51:46;;;;;;;;;;;;;;;17.67;25.14;99921.47;5094423;28;19916;-81
2023/02/10 15:54:14;;;;;;;;;;;;;;;19.05;22.72;99926.53;5107230;28;20394;-82
2023/02/10 15:56:40;;;;;;;;;;;;;;;19.35;21.87;99929.72;5105001;28;19920;-82
2023/02/10 15:59:16;;;;;;;;;;;;;;;17.82;24.29;99929.13;5107657;28;20003;-82
2023/02/10 16:01:42;;;;;;;;;;;;;;;18.48;22.99;99932.41;5115182;27;20026;-82
2023/02/10 16:04:08;;;;;;;;;;;;;;;18.92;22.87;99943.66;5108691;28;19947;-81
2023/02/10 16:06:35;;;;;;;;;;;;;;;18.81;23.06;99937.75;5103888;28;19932;-81
2023/02/10 16:09:01;;;;;;;;;;;;;;;18.73;22.15;99949.03;5109997;27;19927;-82
2023/02/10 16:11:28;;;;;;;;;;;;;;;17.86;23.82;99945.91;5097743;28;20303;-81
2023/02/10 16:13:54;;;;;;;;;;;;;;;17.76;24.56;99947.19;5116088;27;19927;-81
2023/02/10 16:16:20;;;;;;;;;;;;;;;19.98;21.45;99944.50;5111010;28;20386;-81
2023/02/10 16:18:46;;;;;;;;;;;;;;;19.81;21.27;99945.66;5117091;27;19920;-81
2023/02/10 16:21:13;;;;;;;;;;;;;;;19.98;21.45;99945.31;5098587;27;19924;-81
2023/02/10 16:23:40;;;;;;;;;;;;;;;21.28;19.75;99941.03;5102154;28;19915;-81
2023/02/10 16:26:07;;;;;;;;;;;;;;;22.00;19.65;99939.13;5111636;27;20339;-81
2023/02/10 16:28:33;;;;;;;;;;;;;;;22.67;18.69;99934.53;5114589;28;19916;-81
2023/02/10 16:30:59;;;;;;;;;;;;;;;22.66;18.52;99942.13;5110726;27;19924;-81
2023/02/10 16:33:25;;;;;;;;;;;;;;;22.57;18.74;99938.75;5114161;28;19927;-82
2023/02/10 16:35:51;;;;;;;;;;;;;;;22.56;19.46;99933.56;5112035;27;19985;-82
2023/02/10 16:38:18;;;;;;;;;;;;;;;22.91;18.08;99936.03;5100437;28;20428;-82
2023/02/10 16:40:44;;;;;;;;;;;;;;;23.23;19.20;99938.03;5089406;28;20410;-81
2023/02/10 16:43:10;;;;;;;;;;;;;;;23.48;17.96;99929.88;5083973;28;19916;-81
2023/02/10 16:45:37;;;;;;;;;;;;;;;23.81;18.18;99940.22;5104420;28;19927;-81
2023/02/10 16:48:03;;;;;;;;;;;;;;;23.99;17.52;99944.78;5108634;28;19923;-82
2023/02/10 16:50:31;;;;;;;;;;;;;;;23.95;17.01;99937.53;5100610;28;19920;-81
2023/02/10 16:52:58;;;;;;;;;;;;;;;23.31;17.61;99950.13;5106197;27;19923;-81
2023/02/10 16:55:24;;;;;;;;;;;;;;;23.35;18.06;99948.19;5094840;28;19966;-81
2023/02/10 16:57:50;;;;;;;;;;;;;;;23.30;18.23;99951.31;5112591;28;19927;-81
2023/02/10 17:00:17;;;;;;;;;;;;;;;23.45;18.41;99943.88;5111612;28;19955;-81
2023/02/10 17:02:43;;;;;;;;;;;;;;;23.26;17.47;99942.88;5107487;28;19927;-81
2023/02/10 17:05:10;;;;;;;;;;;;;;;23.34;18.44;99938.97;5096490;28;19924;-82
2023/02/10 17:07:37;;;;;;;;;;;;;;;23.36;18.75;99935.78;5107334;28;19920;-81
2023/02/10 17:10:04;;;;;;;;;;;;;;;23.56;17.68;99940.00;5107682;28;19920;-82
2023/02/10 17:12:30;;;;;;;;;;;;;;;23.79;17.78;99939.78;5103800;28;19933;-81
2023/02/10 17:14:56;;;;;;;;;;;;;;;23.51;17.57;99943.16;5108727;28;19920;-81
2023/02/10 17:17:22;;;;;;;;;;;;;;;22.30;18.81;99951.19;5109069;28;20029;-81
2023/02/10 17:19:48;;;;;;;;;;;;;;;21.76;18.62;99953.47;5106360;28;20006;-82
2023/02/10 17:22:14;;;;;;;;;;;;;;;21.54;18.98;99955.06;5101650;28;20310;-81
2023/02/10 17:24:40;;;;;;;;;;;;;;;21.93;19.05;99953.00;5079186;28;19924;-80
2023/02/10 17:27:07;;;;;;;;;;;;;;;22.31;18.18;99957.59;5104500;28;20371;-80
2023/02/10 17:29:33;;;;;;;;;;;;;;;22.82;18.56;99966.34;5111476;28;19919;-81
2023/02/10 17:32:00;;;;;;;;;;;;;;;23.29;18.60;99970.09;5102530;28;19934;-81
2023/02/10 17:34:32;;;;;;;;;;;;;;;23.69;18.59;99958.13;5109758;28;19920;-82
2023/02/10 17:36:59;;;;;;;;;;;;;;;22.52;17.94;99950.28;5110247;28;19973;-81
2023/02/10 17:41:55;;;;;;;;;;;;;;;22.02;18.06;99956.31;5115206;28;20306;-81
2023/02/10 17:44:21;;;;;;;;;;;;;;;21.70;19.43;99961.38;5117313;27;19920;-81
2023/02/10 17:46:53;;;;;;;;;;;;;;;22.22;18.52;99957.84;5113424;28;19924;-81
2023/02/10 17:49:20;;;;;;;;;;;;;;;22.74;18.89;99954.22;5107163;28;19920;-81
2023/02/10 17:51:46;;;;;;;;;;;;;;;22.84;17.82;99950.75;5107838;28;19927;-81
2023/02/10 17:54:15;;;;;;;;;;;;;;;22.62;17.96;99949.66;5101724;28;19982;-81
2023/02/10 17:56:42;;;;;;;;;;;;;;;22.51;17.97;99953.47;5117342;28;19923;-80
2023/02/10 17:59:08;;;;;;;;;;;;;;;23.15;18.93;99955.94;5114325;27;19928;-80
2023/02/10 18:01:34;;;;;;;;;;;;;;;23.47;18.12;99953.53;5106958;27;19923;-81
2023/02/10 18:04:01;;;;;;;;;;;;;;;23.62;17.74;99957.28;5111650;28;20440;-81
2023/02/10 18:06:28;;;;;;;;;;;;;;;23.70;17.81;99954.16;5088330;28;19954;-81
2023/02/10 18:08:55;;;;;;;;;;;;;;;23.79;17.78;99951.84;5106558;27;20272;-81
2023/02/10 18:11:21;;;;;;;;;;;;;;;23.74;17.20;99946.56;5099426;28;19928;-81
2023/02/10 18:13:48;;;;;;;;;;;;;;;23.95;17.57;99952.38;5114928;27;20006;-81
2023/02/10 18:16:17;;;;;;;;;;;;;;;23.80;17.74;99953.47;5113945;28;19919;-81
2023/02/10 18:18:43;;;;;;;;;;;;;;;23.62;17.66;99948.88;5117188;27;20375;-81
2023/02/10 18:21:13;;;;;;;;;;;;;;;23.77;18.07;99947.78;5110645;28;20012;-81
2023/02/10 18:23:39;;;;;;;;;;;;;;;24.10;17.84;99946.91;5106442;28;19927;-81
2023/02/10 18:26:05;;;;;;;;;;;;;;;24.23;17.99;99932.16;5103497;28;19966;-81
2023/02/10 18:28:31;;;;;;;;;;;;;;;24.41;17.39;99938.69;5110615;28;20295;-81
2023/02/10 18:31:01;;;;;;;;;;;;;;;24.45;17.83;99933.09;5113511;28;19971;-81
2023/02/10 18:33:27;;;;;;;;;;;;;;;24.48;17.83;99946.38;5101971;28;19927;-81
2023/02/10 18:35:53;;;;;;;;;;;;;;;24.58;17.43;99942.78;5106781;27;19969;-82
2023/02/10 18:38:19;;;;;;;;;;;;;;;24.54;17.72;99936.38;5113732;28;19926;-83
2023/02/10 18:40:51;;;;;;;;;;;;;;;24.52;17.30;99922.72;5107301;28;20022;-81
2023/02/10 18:43:21;;;;;;;;;;;;;;;24.60;17.82;99921.56;5116426;28;19916;-81
2023/02/10 18:45:48;;;;;;;;;;;;;;;24.50;16.82;99910.28;5112626;28;19920;-82
2023/02/10 18:48:14;;;;;;;;;;;;;;;24.41;17.33;99921.06;5112327;28;20370;-82
2023/02/10 18:50:42;;;;;;;;;;;;;;;24.48;17.49;99915.47;5113936;28;19949;-81
2023/02/10 18:53:08;;;;;;;;;;;;;;;24.35;17.28;99919.81;5113886;28;19924;-82
2023/02/10 18:55:34;;;;;;;;;;;;;;;24.23;17.95;99908.88;5106170;28;19920;-82
2023/02/10 18:58:02;;;;;;;;;;;;;;;23.89;17.88;99914.66;5102191;28;20386;-81
2023/02/10 19:00:31;;;;;;;;;;;;;;;23.69;17.72;99915.25;5104417;28;19952;-81
2023/02/10 19:02:57;;;;;;;;;;;;;;;23.35;17.31;99915.38;5094136;28;19945;-81
2023/02/10 19:05:23;;;;;;;;;;;;;;;23.32;18.52;99923.69;5105130;28;19924;-81
2023/02/10 19:07:49;;;;;;;;;;;;;;;23.34;17.98;99924.94;5113002;28;19969;-81
2023/02/10 19:10:15;;;;;;;;;;;;;;;23.31;17.78;99927.69;5115828;27;20366;-81
2023/02/10 19:12:41;;;;;;;;;;;;;;;23.43;17.67;99921.84;5115056;28;19946;-81
2023/02/10 19:15:07;;;;;;;;;;;;;;;23.52;18.09;99927.94;5104325;28;19919;-81
2023/02/10 19:17:33;;;;;;;;;;;;;;;23.63;17.82;99922.44;5102653;28;19970;-81
2023/02/10 19:19:59;;;;;;;;;;;;;;;23.73;18.39;99921.72;5111263;27;19919;-81
2023/02/10 19:22:25;;;;;;;;;;;;;;;23.87;17.92;99921.84;5114003;28;19971;-81
2023/02/10 19:24:51;;;;;;;;;;;;;;;23.71;17.58;99922.09;5108521;27;20362;-81
2023/02/10 19:27:17;;;;;;;;;;;;;;;23.29;17.77;99924.47;5093257;28;19967;-81
2023/02/10 19:29:44;;;;;;;;;;;;;;;22.38;18.53;99915.72;5101780;28;20014;-82
2023/02/10 19:32:10;;;;;;;;;;;;;;;22.29;19.03;99918.78;5102970;28;19979;-82
2023/02/10 19:34:36;;;;;;;;;;;;;;;22.16;18.71;99924.97;5111600;27;20379;-81
2023/02/10 19:37:02;;;;;;;;;;;;;;;22.54;19.46;99924.72;5109622;28;19932;-82
2023/02/10 19:39:28;;;;;;;;;;;;;;;22.85;18.47;99921.56;5103022;28;19927;-81
2023/02/10 19:41:54;;;;;;;;;;;;;;;22.85;18.78;99917.97;5101130;28;19920;-81
2023/02/10 19:44:21;;;;;;;;;;;;;;;23.07;18.44;99929.03;5108537;27;19924;-82
2023/02/10 19:46:47;;;;;;;;;;;;;;;23.08;18.52;99915.84;5113547;28;20003;-82
2023/02/10 19:49:14;;;;;;;;;;;;;;;22.98;18.06;99922.94;5108828;28;19923;-83
2023/02/10 19:51:41;;;;;;;;;;;;;;;22.58;19.17;99931.19;5109124;28;19920;-82
2023/02/10 19:54:07;;;;;;;;;;;;;;;22.59;18.63;99935.59;5103509;28;19924;-81
2023/02/10 19:56:34;;;;;;;;;;;;;;;22.55;18.97;99921.53;5114593;27;20279;-83
2023/02/10 19:59:01;;;;;;;;;;;;;;;22.08;18.93;99924.03;5110487;28;19989;-82
2023/02/10 20:01:27;;;;;;;;;;;;;;;21.94;19.27;99913.44;5112688;27;19965;-81
2023/02/10 20:03:54;;;;;;;;;;;;;;;20.84;19.96;99920.16;5110330;28;20008;-82
2023/02/10 20:06:22;;;;;;;;;;;;;;;20.38;20.35;99916.38;5105696;28;19926;-82
2023/02/10 20:08:48;;;;;;;;;;;;;;;21.25;19.56;99923.00;5098897;28;20395;-82
2023/02/10 20:11:15;;;;;;;;;;;;;;;22.19;19.45;99921.44;5095073;28;19916;-82
2023/02/10 20:13:42;;;;;;;;;;;;;;;22.26;18.65;99927.94;5109037;28;19916;-82
2023/02/10 20:16:08;;;;;;;;;;;;;;;22.66;18.25;99925.31;5111660;28;19950;-81
2023/02/10 20:18:34;;;;;;;;;;;;;;;23.07;19.16;99919.81;5112112;28;19922;-83
2023/02/10 20:21:02;;;;;;;;;;;;;;;23.57;18.73;99924.75;5111391;27;19922;-83
2023/02/10 20:23:28;;;;;;;;;;;;;;;24.00;18.64;99928.75;5105870;28;19916;-84
2023/02/10 20:25:55;;;;;;;;;;;;;;;24.24;18.56;99914.13;5112887;28;19923;-83
2023/02/10 20:28:21;;;;;;;;;;;;;;;24.37;18.51;99906.97;5121230;27;20256;-83
2023/02/10 20:30:48;;;;;;;;;;;;;;;24.44;17.90;99909.81;5113352;28;19916;-82
2023/02/10 20:33:14;;;;;;;;;;;;;;;23.99;17.56;99905.50;5113643;28;20037;-82
2023/02/10 20:35:41;;;;;;;;;;;;;;;23.31;17.75;99914.47;5114168;28;19931;-82
2023/02/10 20:38:07;;;;;;;;;;;;;;;22.23;18.96;99919.47;5094231;28;20018;-82
2023/02/10 20:40:33;;;;;;;;;;;;;;;22.07;18.29;99913.25;5095846;28;20021;-82
2023/02/10 20:43:00;;;;;;;;;;;;;;;21.28;19.63;99915.88;5113792;28;19924;-82
2023/02/10 20:45:26;;;;;;;;;;;;;;;21.90;19.07;99903.38;5113817;28;19973;-83
2023/02/10 20:47:52;;;;;;;;;;;;;;;21.73;19.15;99893.50;5093594;28;19928;-82
2023/02/10 20:50:18;;;;;;;;;;;;;;;21.80;18.24;99898.38;5111919;28;19920;-82
2023/02/10 20:52:44;;;;;;;;;;;;;;;22.66;18.98;99894.53;5113276;28;20394;-82
2023/02/10 20:55:11;;;;;;;;;;;;;;;22.76;18.14;99887.44;5113128;28;19972;-83
2023/02/10 20:57:37;;;;;;;;;;;;;;;22.84;18.66;99888.34;5105509;28;19965;-83
2023/02/10 21:00:04;;;;;;;;;;;;;;;23.01;18.17;99890.53;5112983;28;20387;-82
2023/02/10 21:02:31;;;;;;;;;;;;;;;22.35;18.57;99892.09;5110122;28;20015;-81
2023/02/10 21:04:57;;;;;;;;;;;;;;;22.62;18.34;99885.28;5105606;28;19924;-82
2023/02/10 21:07:24;;;;;;;;;;;;;;;22.64;18.03;99885.69;5106109;28;19927;-82
2023/02/10 21:09:50;;;;;;;;;;;;;;;22.67;17.85;99875.72;5111418;28;19961;-81
2023/02/10 21:12:18;;;;;;;;;;;;;;;22.43;18.37;99871.41;5103635;28;19924;-81
2023/02/10 21:14:45;;;;;;;;;;;;;;;21.95;18.44;99870.31;5097356;28;19917;-81
2023/02/10 21:17:11;;;;;;;;;;;;;;;21.28;19.00;99880.34;5094832;28;20312;-81
2023/02/10 21:19:37;;;;;;;;;;;;;;;21.03;19.21;99887.44;5111810;28;20367;-82
2023/02/10 21:22:03;;;;;;;;;;;;;;;21.84;18.95;99879.75;5101918;28;19935;-82
2023/02/10 21:24:30;;;;;;;;;;;;;;;21.98;18.39;99883.53;5101206;28;19939;-82
2023/02/10 21:26:56;;;;;;;;;;;;;;;21.68;19.26;99879.06;5097022;28;19967;-83
2023/02/10 21:29:23;;;;;;;;;;;;;;;21.86;19.31;99868.97;5097230;28;19955;-82
2023/02/10 21:31:50;;;;;;;;;;;;;;;22.49;18.92;99861.50;5101981;28;20006;-82
2023/02/10 21:34:16;;;;;;;;;;;;;;;23.03;18.54;99855.34;5097505;28;19924;-83
2023/02/10 21:36:43;;;;;;;;;;;;;;;23.41;18.31;99851.31;5108425;28;19923;-82
2023/02/10 21:39:10;;;;;;;;;;;;;;;23.42;18.06;99852.13;5088107;28;20303;-82
2023/02/10 21:41:55;;;;;;;;;;;;;;;23.42;18.34;99850.16;5091452;28;19928;-82
2023/02/10 21:44:22;;;;;;;;;;;;;;;23.36;18.19;99852.50;5109884;28;19942;-82
2023/02/10 21:46:49;;;;;;;;;;;;;;;22.94;17.43;99862.44;5100796;28;20027;-81
2023/02/10 21:49:16;;;;;;;;;;;;;;;22.17;18.84;99854.63;5098140;28;20433;-82
2023/02/10 21:51:42;;;;;;;;;;;;;;;22.30;19.23;99856.03;5109618;28;20022;-82
2023/02/10 21:54:09;;;;;;;;;;;;;;;22.62;18.76;99853.66;5103015;28;19989;-81
2023/02/10 21:56:35;;;;;;;;;;;;;;;22.82;18.32;99849.53;5109359;28;19926;-82
2023/02/10 21:59:01;;;;;;;;;;;;;;;22.87;17.96;99853.97;5100918;28;19920;-82
2023/02/10 22:01:27;;;;;;;;;;;;;;;23.07;17.57;99850.59;5104244;28;19924;-82
2023/02/10 22:03:53;;;;;;;;;;;;;;;23.22;17.17;99845.94;5079045;28;20018;-82
2023/02/10 22:06:19;;;;;;;;;;;;;;;22.75;18.13;99845.81;5105709;28;19928;-82
2023/02/10 22:08:45;;;;;;;;;;;;;;;22.29;18.32;99845.19;5107753;28;19939;-81
2023/02/10 22:11:13;;;;;;;;;;;;;;;21.65;18.57;99841.47;5128827;28;19923;-82
2023/02/10 22:13:40;;;;;;;;;;;;;;;21.18;18.70;99849.44;5114788;28;20387;-81
2023/02/10 22:16:07;;;;;;;;;;;;;;;21.14;18.99;99854.94;5113506;28;19968;-82
2023/02/10 22:18:33;;;;;;;;;;;;;;;20.76;18.92;99855.00;5114772;28;19923;-81
2023/02/10 22:21:26;;;;;;;;;;;;;;;20.45;19.08;99860.72;5104819;28;19932;-81
2023/02/10 22:23:52;;;;;;;;;;;;;;;20.26;19.21;99853.16;5106774;28;20006;-81
2023/02/10 22:26:19;;;;;;;;;;;;;;;20.05;19.31;99857.44;5105389;28;20272;-81
2023/02/10 22:28:45;;;;;;;;;;;;;;;20.60;18.97;99855.09;5103927;28;20417;-81
2023/02/10 22:31:25;;;;;;;;;;;;;;;21.18;19.05;99835.47;5105622;28;20504;-82
2023/02/10 22:33:53;;;;;;;;;;;;;;;21.02;18.19;99846.72;5112283;28;19962;-81
2023/02/10 22:36:19;;;;;;;;;;;;;;;21.01;18.34;99847.09;5102959;28;19928;-81
2023/02/10 22:38:46;;;;;;;;;;;;;;;21.31;18.78;99822.91;5110537;28;19943;-81
2023/02/10 22:41:13;;;;;;;;;;;;;;;21.76;17.79;99819.25;5104778;28;19924;-81
2023/02/10 22:43:39;;;;;;;;;;;;;;;21.85;18.06;99811.44;5100390;27;19930;-80
2023/02/10 22:46:05;;;;;;;;;;;;;;;21.96;17.79;99806.81;5105494;28;19930;-81
2023/02/10 22:48:32;;;;;;;;;;;;;;;21.92;17.55;99805.94;5114023;28;19919;-81
2023/02/10 22:51:05;;;;;;;;;;;;;;;21.71;17.33;99798.03;5109067;27;19961;-81
2023/02/10 22:53:31;;;;;;;;;;;;;;;21.19;17.87;99801.56;5095243;28;19931;-80
2023/02/10 22:56:04;;;;;;;;;;;;;;;21.17;17.89;99803.94;5099321;28;19923;-81
2023/02/10 22:58:30;;;;;;;;;;;;;;;21.00;17.92;99806.41;5101234;28;20397;-81
2023/02/10 23:00:56;;;;;;;;;;;;;;;20.91;17.76;99811.41;5112766;28;19916;-81
2023/02/10 23:03:22;;;;;;;;;;;;;;;20.56;18.20;99805.97;5113369;28;19919;-81
2023/02/10 23:05:48;;;;;;;;;;;;;;;20.76;18.00;99803.94;5113848;28;20432;-81
2023/02/10 23:08:14;;;;;;;;;;;;;;;21.05;18.07;99797.75;5107037;27;19927;-81
2023/02/10 23:10:40;;;;;;;;;;;;;;;21.37;17.97;99801.06;5104869;28;19961;-81
2023/02/10 23:13:06;;;;;;;;;;;;;;;21.58;17.99;99790.22;5103132;28;19920;-81
2023/02/10 23:15:32;;;;;;;;;;;;;;;21.71;17.54;99783.22;5109637;28;19985;-81
2023/02/10 23:17:58;;;;;;;;;;;;;;;21.58;17.63;99785.44;5111913;28;20379;-81
2023/02/10 23:20:24;;;;;;;;;;;;;;;21.38;17.71;99788.72;5102220;28;19923;-81
2023/02/10 23:22:50;;;;;;;;;;;;;;;21.30;17.64;99796.19;5102387;28;19919;-81
2023/02/10 23:25:16;;;;;;;;;;;;;;;21.28;18.07;99790.16;5096992;28;19920;-81
2023/02/10 23:27:42;;;;;;;;;;;;;;;21.33;17.55;99787.06;5097356;28;19968;-81
2023/02/10 23:30:08;;;;;;;;;;;;;;;21.13;17.67;99785.50;5091817;28;19985;-81
2023/02/10 23:32:34;;;;;;;;;;;;;;;21.13;17.59;99780.72;5099951;28;19935;-81